createdAt,value
2022-12-25T00:02:16.810Z,101393.36
2022-12-25T00:04:43.787Z,101396.06
2022-12-25T00:07:10.531Z,101400.17
2022-12-25T00:09:37.214Z,101403.48
2022-12-25T00:12:03.862Z,101405.71
2022-12-25T00:14:30.557Z,101406.34
2022-12-25T00:16:57.330Z,101402.86
2022-12-25T00:19:23.963Z,101409.09
2022-12-25T00:21:50.654Z,101413.73
2022-12-25T00:24:17.419Z,101410.20
2022-12-25T00:26:44.263Z,101411.17
2022-12-25T00:29:12.992Z,101410.01
2022-12-25T00:31:39.781Z,101410.94
2022-12-25T00:34:06.494Z,101417.97
2022-12-25T00:36:39.529Z,101417.92
2022-12-25T00:39:08.315Z,101417.95
2022-12-25T00:41:53.870Z,101412.83
2022-12-25T00:44:20.612Z,101409.34
2022-12-25T00:46:47.373Z,101411.38
2022-12-25T00:49:14.188Z,101416.38
2022-12-25T00:51:40.882Z,101415.55
2022-12-25T00:54:08.236Z,101412.23
2022-12-25T00:56:34.942Z,101413.17
2022-12-25T00:59:01.727Z,101414.33
2022-12-25T01:01:28.441Z,101414.93
2022-12-25T01:03:56.025Z,101413.25
2022-12-25T01:06:22.758Z,101409.27
2022-12-25T01:09:07.881Z,101410.34
2022-12-25T01:11:34.546Z,101410.45
2022-12-25T01:14:01.853Z,101413.61
2022-12-25T01:16:29.255Z,101419.20
2022-12-25T01:18:56.198Z,101416.48
2022-12-25T01:21:23.213Z,101419.16
2022-12-25T01:23:52.524Z,101418.48
2022-12-25T01:26:21.683Z,101420.96
2022-12-25T01:28:49.893Z,101419.61
2022-12-25T01:31:19.714Z,101422.36
2022-12-25T01:33:46.629Z,101421.88
2022-12-25T01:36:25.949Z,101419.06
2022-12-25T01:38:54.108Z,101421.55
2022-12-25T01:41:23.913Z,101420.67
2022-12-25T01:44:07.709Z,101424.85
2022-12-25T01:46:35.797Z,101420.85
2022-12-25T01:49:08.143Z,101426.02
2022-12-25T01:51:49.799Z,101425.50
2022-12-25T01:54:21.641Z,101424.11
2022-12-25T01:56:51.708Z,101423.92
2022-12-25T01:59:21.201Z,101430.45
2022-12-25T02:01:48.894Z,101427.77
2022-12-25T02:04:40.898Z,101435.40
2022-12-25T02:07:13.388Z,101434.06
2022-12-25T02:09:40.377Z,101430.70
2022-12-25T02:12:09.616Z,101432.46
2022-12-25T02:14:37.825Z,101429.98
2022-12-25T02:17:19.186Z,101427.81
2022-12-25T02:19:55.055Z,101426.95
2022-12-25T02:22:56.013Z,101427.20
2022-12-25T02:25:31.633Z,101431.36
2022-12-25T02:28:07.122Z,101435.01
2022-12-25T02:30:46.386Z,101435.64
2022-12-25T02:33:37.047Z,101438.30
2022-12-25T02:36:07.577Z,101432.88
2022-12-25T02:38:39.180Z,101434.20
2022-12-25T02:41:13.742Z,101437.04
2022-12-25T02:44:03.361Z,101437.44
2022-12-25T02:46:51.990Z,101436.10
2022-12-25T02:49:42.777Z,101431.16
2022-12-25T02:52:32.183Z,101426.09
2022-12-25T02:55:29.116Z,101428.05
2022-12-25T02:58:26.693Z,101428.64
2022-12-25T03:01:18.428Z,101430.02
2022-12-25T03:04:07.452Z,101428.52
2022-12-25T03:06:46.853Z,101428.80
2022-12-25T03:09:40.053Z,101425.86
2022-12-25T03:13:03.414Z,101427.63
2022-12-25T03:15:50.740Z,101430.73
2022-12-25T03:18:24.315Z,101429.55
2022-12-25T03:21:10.921Z,101425.50
2022-12-25T03:23:59.437Z,101426.20
2022-12-25T03:26:46.218Z,101418.99
2022-12-25T03:29:32.931Z,101423.27
2022-12-25T03:32:32.231Z,101424.74
2022-12-25T03:35:23.892Z,101418.88
2022-12-25T03:38:09.309Z,101417.74
2022-12-25T03:41:21.005Z,101421.98
2022-12-25T03:44:24.256Z,101416.69
2022-12-25T03:47:35.451Z,101415.73
2022-12-25T03:50:31.179Z,101419.55
2022-12-25T03:53:20.461Z,101417.55
2022-12-25T03:56:07.737Z,101418.58
2022-12-25T03:58:53.013Z,101423.17
2022-12-25T04:01:38.441Z,101426.09
2022-12-25T04:04:24.262Z,101421.59
2022-12-25T04:07:09.755Z,101425.07
2022-12-25T04:09:55.300Z,101426.73
2022-12-25T04:12:40.671Z,101428.35
2022-12-25T04:15:26.648Z,101431.34
2022-12-25T04:18:11.860Z,101430.46
2022-12-25T04:20:57.245Z,101433.23
2022-12-25T04:23:42.589Z,101429.86
2022-12-25T04:26:28.154Z,101431.36
2022-12-25T04:29:13.650Z,101428.31
2022-12-25T04:31:59.137Z,101431.38
2022-12-25T04:34:44.371Z,101431.23
2022-12-25T04:37:11.257Z,101435.95
2022-12-25T04:39:38.018Z,101439.52
2022-12-25T04:42:04.741Z,101440.30
2022-12-25T04:44:31.463Z,101445.61
2022-12-25T04:46:58.129Z,101444.86
2022-12-25T04:49:24.868Z,101449.98
2022-12-25T04:51:51.656Z,101452.90
2022-12-25T04:54:18.660Z,101455.65
2022-12-25T04:56:46.189Z,101454.09
2022-12-25T04:59:13.174Z,101458.98
2022-12-25T05:01:40.513Z,101459.66
2022-12-25T05:04:07.812Z,101465.81
2022-12-25T05:06:34.653Z,101468.13
2022-12-25T05:09:01.410Z,101471.02
2022-12-25T05:11:28.193Z,101468.14
2022-12-25T05:13:54.864Z,101473.33
2022-12-25T05:16:22.009Z,101473.77
2022-12-25T05:18:50.917Z,101474.33
2022-12-25T05:21:18.762Z,101469.34
2022-12-25T05:23:51.547Z,101470.27
2022-12-25T05:26:23.982Z,101473.85
2022-12-25T05:28:51.091Z,101475.45
2022-12-25T05:31:19.530Z,101480.03
2022-12-25T05:33:49.990Z,101476.09
2022-12-25T05:36:17.600Z,101472.06
2022-12-25T05:38:44.364Z,101470.11
2022-12-25T05:41:11.337Z,101471.05
2022-12-25T05:43:38.042Z,101467.65
2022-12-25T05:46:07.264Z,101466.13
2022-12-25T05:48:36.903Z,101468.41
2022-12-25T05:51:08.822Z,101472.13
2022-12-25T05:53:36.549Z,101471.04
2022-12-25T05:56:06.375Z,101471.21
2022-12-25T05:58:35.345Z,101474.10
2022-12-25T06:01:02.394Z,101476.89
2022-12-25T06:03:29.567Z,101472.88
2022-12-25T06:05:56.916Z,101473.06
2022-12-25T06:08:23.671Z,101476.75
2022-12-25T06:10:50.458Z,101484.48
2022-12-25T06:13:17.253Z,101485.64
2022-12-25T06:15:44.063Z,101491.74
2022-12-25T06:18:10.885Z,101491.52
2022-12-25T06:20:41.309Z,101496.34
2022-12-25T06:23:08.058Z,101501.51
2022-12-25T06:25:35.120Z,101504.97
2022-12-25T06:28:01.808Z,101508.64
2022-12-25T06:30:28.538Z,101512.13
2022-12-25T06:32:55.243Z,101517.73
2022-12-25T06:35:21.995Z,101523.16
2022-12-25T06:37:48.811Z,101529.55
2022-12-25T06:40:15.648Z,101532.30
2022-12-25T06:42:42.310Z,101529.64
2022-12-25T06:45:10.149Z,101524.70
2022-12-25T06:47:37.862Z,101528.88
2022-12-25T06:50:06.341Z,101523.78
2022-12-25T06:52:33.744Z,101523.05
2022-12-25T06:55:00.663Z,101522.55
2022-12-25T06:57:27.339Z,101523.56
2022-12-25T06:59:55.550Z,101522.34
2022-12-25T07:02:24.468Z,101523.95
2022-12-25T07:04:52.363Z,101516.55
2022-12-25T07:07:19.450Z,101520.62
2022-12-25T07:09:46.193Z,101523.30
2022-12-25T07:12:21.038Z,101526.06
2022-12-25T07:14:50.462Z,101525.86
2022-12-25T07:17:18.320Z,101530.29
2022-12-25T07:19:46.725Z,101531.67
2022-12-25T07:22:14.708Z,101530.48
2022-12-25T07:24:41.693Z,101534.05
2022-12-25T07:27:08.552Z,101536.39
2022-12-25T07:29:35.427Z,101536.46
2022-12-25T07:32:02.275Z,101540.66
2022-12-25T07:34:29.156Z,101536.63
2022-12-25T07:36:55.889Z,101538.95
2022-12-25T07:39:23.960Z,101542.60
2022-12-25T07:41:51.392Z,101550.77
2022-12-25T07:44:18.232Z,101555.42
2022-12-25T07:46:45.324Z,101558.55
2022-12-25T07:49:12.996Z,101563.80
2022-12-25T07:51:39.889Z,101566.71
2022-12-25T07:54:06.625Z,101569.08
2022-12-25T07:56:33.408Z,101571.98
2022-12-25T07:59:00.359Z,101574.57
2022-12-25T08:01:28.700Z,101578.59
2022-12-25T08:04:02.052Z,101585.54
2022-12-25T08:06:34.601Z,101586.06
2022-12-25T08:09:10.014Z,101582.23
2022-12-25T08:11:37.716Z,101584.89
2022-12-25T08:14:09.193Z,101592.16
2022-12-25T08:16:39.910Z,101592.61
2022-12-25T08:19:08.079Z,101596.67
2022-12-25T08:21:34.849Z,101598.27
2022-12-25T08:24:05.067Z,101598.90
2022-12-25T08:26:32.160Z,101599.05
2022-12-25T08:28:58.935Z,101600.00
2022-12-25T08:31:28.561Z,101599.98
2022-12-25T08:33:57.991Z,101605.52
2022-12-25T08:36:25.905Z,101609.98
2022-12-25T08:38:56.983Z,101613.73
2022-12-25T08:41:27.855Z,101615.10
2022-12-25T08:43:54.851Z,101619.46
2022-12-25T08:46:21.973Z,101618.00
2022-12-25T08:48:49.935Z,101618.06
2022-12-25T08:51:19.526Z,101624.91
2022-12-25T08:53:48.404Z,101625.92
2022-12-25T08:56:16.174Z,101628.20
2022-12-25T08:58:43.426Z,101630.54
2022-12-25T09:01:10.975Z,101633.13
2022-12-25T09:03:38.033Z,101639.04
2022-12-25T09:06:07.783Z,101631.41
2022-12-25T09:08:36.033Z,101635.05
2022-12-25T09:11:04.815Z,101640.20
2022-12-25T09:13:35.583Z,101644.67
2022-12-25T09:16:10.598Z,101650.48
2022-12-25T09:18:37.501Z,101652.87
2022-12-25T09:21:07.430Z,101656.55
2022-12-25T09:23:34.797Z,101660.73
2022-12-25T09:26:03.449Z,101668.16
2022-12-25T09:28:30.504Z,101667.05
2022-12-25T09:30:57.381Z,101668.63
2022-12-25T09:33:24.514Z,101671.24
2022-12-25T09:36:00.303Z,101664.73
2022-12-25T09:38:28.497Z,101664.22
2022-12-25T09:41:05.626Z,101668.11
2022-12-25T09:43:37.719Z,101670.84
2022-12-25T09:46:05.517Z,101671.91
2022-12-25T09:48:35.349Z,101671.78
2022-12-25T09:51:13.350Z,101675.17
2022-12-25T09:53:50.507Z,101673.35
2022-12-25T09:56:25.591Z,101676.56
2022-12-25T09:58:53.746Z,101677.66
2022-12-25T10:01:33.368Z,101675.81
2022-12-25T10:04:27.989Z,101677.34
2022-12-25T10:07:19.495Z,101672.42
2022-12-25T10:10:07.154Z,101672.22
2022-12-25T10:12:49.465Z,101672.56
2022-12-25T10:15:50.764Z,101672.89
2022-12-25T10:18:38.620Z,101673.11
2022-12-25T10:21:13.036Z,101670.72
2022-12-25T10:23:53.356Z,101668.20
2022-12-25T10:26:25.160Z,101666.40
2022-12-25T10:29:14.871Z,101666.61
2022-12-25T10:31:45.507Z,101662.23
2022-12-25T10:34:14.687Z,101659.35
2022-12-25T10:36:45.967Z,101661.40
2022-12-25T10:39:18.727Z,101662.77
2022-12-25T10:42:10.946Z,101663.80
2022-12-25T10:44:37.966Z,101664.34
2022-12-25T10:47:05.323Z,101661.70
2022-12-25T10:49:36.236Z,101659.77
2022-12-25T10:52:04.143Z,101659.66
2022-12-25T10:54:35.957Z,101652.85
2022-12-25T10:57:18.817Z,101650.44
2022-12-25T10:59:56.886Z,101646.48
2022-12-25T11:02:28.237Z,101641.05
2022-12-25T11:05:10.946Z,101639.66
2022-12-25T11:07:50.925Z,101637.35
2022-12-25T11:10:35.480Z,101631.99
2022-12-25T11:13:03.734Z,101626.58
2022-12-25T11:15:45.816Z,101626.70
2022-12-25T11:18:23.154Z,101625.27
2022-12-25T11:20:50.678Z,101623.80
2022-12-25T11:23:20.379Z,101623.05
2022-12-25T11:26:05.649Z,101623.38
2022-12-25T11:28:35.183Z,101613.40
2022-12-25T11:31:07.862Z,101611.13
2022-12-25T11:33:38.807Z,101607.97
2022-12-25T11:36:17.910Z,101606.70
2022-12-25T11:38:44.898Z,101606.19
2022-12-25T11:41:12.938Z,101603.95
2022-12-25T11:43:46.904Z,101607.02
2022-12-25T11:46:20.179Z,101605.08
2022-12-25T11:49:04.919Z,101606.30
2022-12-25T11:51:38.691Z,101605.70
2022-12-25T11:54:30.274Z,101600.86
2022-12-25T11:57:00.299Z,101600.95
2022-12-25T11:59:35.078Z,101594.27
2022-12-25T12:02:28.898Z,101593.88
2022-12-25T12:05:08.230Z,101597.83
2022-12-25T12:07:37.643Z,101594.65
2022-12-25T12:10:04.429Z,101593.12
2022-12-25T12:12:38.100Z,101596.35
2022-12-25T12:15:12.503Z,101595.02
2022-12-25T12:17:39.205Z,101590.08
2022-12-25T12:20:29.950Z,101590.94
2022-12-25T12:22:57.759Z,101588.84
2022-12-25T12:25:24.979Z,101585.89
2022-12-25T12:28:05.529Z,101578.48
2022-12-25T12:30:35.807Z,101578.23
2022-12-25T12:33:06.625Z,101575.36
2022-12-25T12:35:40.201Z,101575.73
2022-12-25T12:38:15.238Z,101573.48
2022-12-25T12:40:55.037Z,101573.59
2022-12-25T12:43:56.757Z,101573.52
2022-12-25T12:46:31.501Z,101571.13
2022-12-25T12:49:32.861Z,101571.73
2022-12-25T12:52:05.734Z,101575.19
2022-12-25T12:54:32.795Z,101574.26
2022-12-25T12:57:02.532Z,101571.73
2022-12-25T12:59:40.059Z,101577.46
2022-12-25T13:02:39.687Z,101578.30
2022-12-25T13:05:30.546Z,101578.67
2022-12-25T13:08:19.680Z,101572.80
2022-12-25T13:11:03.103Z,101578.91
2022-12-25T13:13:39.077Z,101580.39
2022-12-25T13:16:12.871Z,101583.89
2022-12-25T13:18:40.189Z,101587.60
2022-12-25T13:21:07.581Z,101585.38
2022-12-25T13:23:36.776Z,101591.96
2022-12-25T13:26:06.825Z,101586.77
2022-12-25T13:28:36.560Z,101582.45
2022-12-25T13:31:21.363Z,101588.56
2022-12-25T13:34:22.120Z,101588.85
2022-12-25T13:36:49.424Z,101589.19
2022-12-25T13:39:18.040Z,101586.11
2022-12-25T13:42:06.870Z,101590.18
2022-12-25T13:44:39.577Z,101591.81
2022-12-25T13:47:18.595Z,101596.23
2022-12-25T13:49:46.348Z,101600.20
2022-12-25T13:52:15.744Z,101598.42
2022-12-25T13:55:14.555Z,101601.50
2022-12-25T13:57:46.030Z,101601.44
2022-12-25T14:00:22.010Z,101601.02
2022-12-25T14:02:49.846Z,101598.60
2022-12-25T14:05:39.792Z,101605.96
2022-12-25T14:08:24.381Z,101603.86
2022-12-25T14:10:54.269Z,101601.26
2022-12-25T14:13:25.817Z,101602.86
2022-12-25T14:15:53.661Z,101604.52
2022-12-25T14:18:22.660Z,101602.30
2022-12-25T14:21:08.562Z,101604.08
2022-12-25T14:23:43.013Z,101606.52
2022-12-25T14:26:21.024Z,101604.28
2022-12-25T14:29:05.860Z,101602.75
2022-12-25T14:31:33.779Z,101604.45
2022-12-25T14:34:03.083Z,101601.73
2022-12-25T14:36:31.413Z,101603.13
2022-12-25T14:39:00.197Z,101608.36
2022-12-25T14:41:37.716Z,101610.05
2022-12-25T14:44:26.755Z,101612.48
2022-12-25T14:47:12.948Z,101617.64
2022-12-25T14:49:39.635Z,101612.48
2022-12-25T14:52:23.946Z,101613.64
2022-12-25T14:54:57.936Z,101619.55
2022-12-25T14:57:28.810Z,101615.63
2022-12-25T15:00:01.835Z,101611.85
2022-12-25T15:02:37.759Z,101612.10
2022-12-25T15:05:04.913Z,101617.08
2022-12-25T15:07:32.007Z,101619.89
2022-12-25T15:10:25.634Z,101624.45
2022-12-25T15:12:45.654Z,101623.56
2022-12-25T15:15:12.486Z,101626.23
2022-12-25T15:17:39.186Z,101630.18
2022-12-25T15:20:09.015Z,101632.17
2022-12-25T15:23:02.415Z,101634.31
2022-12-25T15:25:22.535Z,101632.04
2022-12-25T15:27:49.539Z,101633.55
2022-12-25T15:30:16.605Z,101634.96
2022-12-25T15:32:43.322Z,101635.83
2022-12-25T15:35:19.604Z,101638.10
2022-12-25T15:37:47.131Z,101640.46
2022-12-25T15:40:16.257Z,101637.70
2022-12-25T15:42:44.985Z,101639.36
2022-12-25T15:45:23.016Z,101636.91
2022-12-25T15:47:49.963Z,101638.58
2022-12-25T15:50:17.843Z,101634.53
2022-12-25T15:52:45.492Z,101641.86
2022-12-25T15:55:13.422Z,101636.64
2022-12-25T15:57:44.817Z,101637.95
2022-12-25T16:00:23.334Z,101637.58
2022-12-25T16:02:50.376Z,101638.21
2022-12-25T16:05:17.457Z,101638.02
2022-12-25T16:07:44.349Z,101639.98
2022-12-25T16:10:18.580Z,101640.42
2022-12-25T16:12:45.675Z,101637.15
2022-12-25T16:15:14.529Z,101641.91
2022-12-25T16:17:42.138Z,101641.56
2022-12-25T16:20:09.853Z,101638.05
2022-12-25T16:22:40.066Z,101638.79
2022-12-25T16:25:13.462Z,101633.52
2022-12-25T16:27:40.640Z,101634.48
2022-12-25T16:30:08.038Z,101637.02
2022-12-25T16:32:34.731Z,101637.17
2022-12-25T16:35:01.536Z,101633.59
2022-12-25T16:37:28.279Z,101634.95
2022-12-25T16:39:54.887Z,101636.29
2022-12-25T16:42:21.546Z,101639.91
2022-12-25T16:44:48.257Z,101640.08
2022-12-25T16:47:14.896Z,101642.71
2022-12-25T16:49:41.551Z,101640.98
2022-12-25T16:52:08.207Z,101639.30
2022-12-25T16:54:34.871Z,101641.25
2022-12-25T16:57:01.669Z,101646.47
2022-12-25T16:59:29.297Z,101646.86
2022-12-25T17:01:56.066Z,101648.51
2022-12-25T17:04:22.986Z,101647.94
2022-12-25T17:06:49.737Z,101656.62
2022-12-25T17:09:16.517Z,101653.74
2022-12-25T17:11:43.197Z,101653.09
2022-12-25T17:14:10.849Z,101647.13
2022-12-25T17:16:38.535Z,101641.50
2022-12-25T17:19:09.845Z,101633.36
2022-12-25T17:21:38.519Z,101630.98
2022-12-25T17:24:06.053Z,101637.48
2022-12-25T17:26:33.837Z,101637.86
2022-12-25T17:29:00.864Z,101642.55
2022-12-25T17:31:28.247Z,101645.52
2022-12-25T17:33:54.937Z,101647.75
2022-12-25T17:36:22.867Z,101641.75
2022-12-25T17:38:49.920Z,101642.91
2022-12-25T17:41:19.129Z,101646.40
2022-12-25T17:43:47.193Z,101645.21
2022-12-25T17:46:25.745Z,101649.10
2022-12-25T17:48:54.779Z,101647.83
2022-12-25T17:51:24.150Z,101648.21
2022-12-25T17:53:53.852Z,101648.74
2022-12-25T17:56:21.800Z,101647.93
2022-12-25T17:58:53.720Z,101646.48
2022-12-25T18:01:21.919Z,101648.83
2022-12-25T18:03:50.200Z,101650.79
2022-12-25T18:06:20.531Z,101652.05
2022-12-25T18:08:48.118Z,101663.48
2022-12-25T18:11:19.148Z,101657.38
2022-12-25T18:13:48.569Z,101655.66
2022-12-25T18:16:17.394Z,101658.94
2022-12-25T18:18:51.485Z,101662.30
2022-12-25T18:21:22.705Z,101669.46
2022-12-25T18:23:50.390Z,101672.29
2022-12-25T18:26:18.206Z,101667.00
2022-12-25T18:28:45.064Z,101667.06
2022-12-25T18:31:20.217Z,101667.81
2022-12-25T18:33:47.454Z,101670.75
2022-12-25T18:36:17.504Z,101668.60
2022-12-25T18:38:44.286Z,101662.55
2022-12-25T18:41:11.806Z,101656.13
2022-12-25T18:43:52.402Z,101656.56
2022-12-25T18:46:26.441Z,101656.16
2022-12-25T18:48:57.595Z,101658.55
2022-12-25T18:51:26.736Z,101659.15
2022-12-25T18:53:57.953Z,101658.86
2022-12-25T18:56:24.680Z,101660.40
2022-12-25T18:58:51.408Z,101659.21
2022-12-25T19:01:23.259Z,101651.89
2022-12-25T19:03:51.276Z,101651.61
2022-12-25T19:06:20.230Z,101656.77
2022-12-25T19:08:46.957Z,101651.79
2022-12-25T19:11:13.917Z,101652.19
2022-12-25T19:13:40.521Z,101655.24
2022-12-25T19:16:07.541Z,101657.68
2022-12-25T19:18:34.257Z,101663.34
2022-12-25T19:21:03.307Z,101661.88
2022-12-25T19:23:30.040Z,101661.77
2022-12-25T19:25:56.823Z,101658.34
2022-12-25T19:28:25.161Z,101650.02
2022-12-25T19:30:55.270Z,101649.36
2022-12-25T19:33:22.828Z,101648.90
2022-12-25T19:35:50.330Z,101651.85
2022-12-25T19:38:17.181Z,101659.52
2022-12-25T19:41:00.541Z,101654.23
2022-12-25T19:43:28.366Z,101649.24
2022-12-25T19:45:55.492Z,101649.65
2022-12-25T19:48:22.598Z,101651.65
2022-12-25T19:50:50.079Z,101657.60
2022-12-25T19:53:17.646Z,101654.29
2022-12-25T19:55:45.191Z,101654.02
2022-12-25T19:58:12.205Z,101655.11
2022-12-25T20:00:40.403Z,101653.89
2022-12-25T20:03:09.637Z,101663.09
2022-12-25T20:05:36.723Z,101666.15
2022-12-25T20:08:03.895Z,101664.20
2022-12-25T20:10:30.544Z,101664.87
2022-12-25T20:12:58.500Z,101667.64
2022-12-25T20:15:25.142Z,101667.89
2022-12-25T20:17:51.886Z,101673.20
2022-12-25T20:20:18.615Z,101682.67
2022-12-25T20:22:45.310Z,101674.86
2022-12-25T20:25:14.095Z,101674.88
2022-12-25T20:27:40.967Z,101673.98
2022-12-25T20:30:08.079Z,101672.93
2022-12-25T20:32:34.672Z,101672.48
2022-12-25T20:35:01.434Z,101677.41
2022-12-25T20:37:28.153Z,101685.14
2022-12-25T20:39:54.863Z,101689.42
2022-12-25T20:42:21.487Z,101685.48
2022-12-25T20:44:48.103Z,101691.17
2022-12-25T20:47:14.859Z,101692.64
2022-12-25T20:49:41.463Z,101687.46
2022-12-25T20:52:08.087Z,101690.86
2022-12-25T20:54:34.856Z,101691.61
2022-12-25T20:57:01.568Z,101693.50
2022-12-25T20:59:33.491Z,101698.86
2022-12-25T21:02:03.786Z,101703.52
2022-12-25T21:04:30.646Z,101710.05
2022-12-25T21:06:57.268Z,101707.43
2022-12-25T21:09:24.057Z,101706.98
2022-12-25T21:11:50.806Z,101709.55
2022-12-25T21:14:17.529Z,101710.11
2022-12-25T21:16:45.452Z,101715.83
2022-12-25T21:19:14.006Z,101717.05
2022-12-25T21:21:43.149Z,101712.65
2022-12-25T21:24:10.766Z,101705.94
2022-12-25T21:26:40.732Z,101710.69
2022-12-25T21:29:09.941Z,101710.34
2022-12-25T21:31:57.083Z,101714.37
2022-12-25T21:34:23.752Z,101715.27
2022-12-25T21:36:50.484Z,101708.40
2022-12-25T21:39:17.300Z,101705.84
2022-12-25T21:44:28.355Z,101708.03
2022-12-25T21:46:55.052Z,101710.63
2022-12-25T21:49:40.475Z,101713.82
2022-12-25T21:52:07.155Z,101717.08
2022-12-25T21:54:34.694Z,101720.83
2022-12-25T21:57:01.768Z,101719.50
2022-12-25T21:59:28.517Z,101719.76
2022-12-25T22:01:55.570Z,101716.34
2022-12-25T22:04:23.615Z,101716.70
2022-12-25T22:07:09.485Z,101719.70
2022-12-25T22:09:36.305Z,101722.35
2022-12-25T22:12:22.494Z,101720.90
2022-12-25T22:14:59.096Z,101719.20
2022-12-25T22:17:47.243Z,101718.77
2022-12-25T22:20:37.366Z,101720.16
2022-12-25T22:23:04.387Z,101720.70
2022-12-25T22:25:31.024Z,101718.86
2022-12-25T22:27:57.865Z,101725.38
2022-12-25T22:30:27.314Z,101724.12
2022-12-25T22:32:54.234Z,101723.53
2022-12-25T22:35:21.792Z,101727.48
2022-12-25T22:37:49.890Z,101726.78
2022-12-25T22:40:19.332Z,101723.17
2022-12-25T22:42:46.872Z,101725.33
2022-12-25T22:45:14.212Z,101722.19
2022-12-25T22:47:41.314Z,101730.08
2022-12-25T22:50:08.572Z,101728.60
2022-12-25T22:52:36.340Z,101729.50
2022-12-25T22:55:04.654Z,101729.14
2022-12-25T22:57:31.275Z,101725.01
2022-12-25T22:59:58.032Z,101728.17
2022-12-25T23:02:24.921Z,101727.15
2022-12-25T23:04:52.979Z,101723.09
2022-12-25T23:07:19.753Z,101720.63
2022-12-25T23:09:46.525Z,101721.92
2022-12-25T23:12:33.325Z,101719.99
2022-12-25T23:14:59.998Z,101721.04
2022-12-25T23:17:45.218Z,101725.64
2022-12-25T23:20:33.254Z,101729.09
2022-12-25T23:23:19.700Z,101726.93
2022-12-25T23:26:05.393Z,101730.11
2022-12-25T23:28:50.668Z,101723.95
2022-12-25T23:31:19.120Z,101720.61
2022-12-25T23:33:45.939Z,101720.10
2022-12-25T23:36:12.693Z,101723.16
2022-12-25T23:38:39.427Z,101722.56
2022-12-25T23:41:06.239Z,101725.64
2022-12-25T23:43:32.884Z,101727.01
2022-12-25T23:45:59.628Z,101725.87
2022-12-25T23:48:26.465Z,101728.27
2022-12-25T23:50:54.221Z,101734.13
2022-12-25T23:53:20.934Z,101729.91
2022-12-25T23:55:55.080Z,101731.36
2022-12-25T23:58:22.491Z,101732.09
